Loma Linda, Missouri
Current Conditions -  °F | °C
As of 9:53 PM on Monday 22 Dec 2014 (Local Time) from KJLN Reporting Station
Clear Clear  
Wind Chill: 36°   Ceiling: Unl
Heat Index: 40°   Visibility: 10mi
Dew Point: 37°   Wind: 6mph
Humidity: 89%   Direction: 240°WSW
Pressure: 29.63"   Gusts: NA
Location:  37.0039°N, 94.5308°W
Report Text: KJLN 230353Z AUTO 24005KT 10SM CLR 04/03 A2963 RMK AO2 SLP033 T00440028
Loading
Personal Weather Stations






























Interactive Weather Map New forecast layout! Learn more

10-Day Weather Forecast

Advertisements
Track Severe Weather on mobile